Time;durP1;ratioP1;P1;durP2;ratioP2;P2;SDS_P1;SDS_P2;PMS_P1;PMS_P2;Temp;Humidity;BMP_temperature;BMP_pressure;BME280_temperature;BME280_humidity;BME280_pressure;Samples;Min_cycle;Max_cycle;Signal;HPM_P1;HPM_P2
2023/05/01 00:00:26;;;;;;;3.90;2.97;;;14.40;99.90;;;;;;5028363;28;20290;-67
2023/05/01 00:02:54;;;;;;;3.72;3.05;;;14.40;99.90;;;;;;5032654;28;20209;-66
2023/05/01 00:05:20;;;;;;;4.35;3.05;;;14.40;99.90;;;;;;5035009;28;20232;-67
2023/05/01 00:07:45;;;;;;;4.70;3.40;;;14.30;99.90;;;;;;5024966;28;20194;-67
2023/05/01 00:10:13;;;;;;;4.20;2.92;;;14.30;99.90;;;;;;5034840;28;20169;-67
2023/05/01 00:12:39;;;;;;;4.10;2.83;;;14.30;99.90;;;;;;5029569;28;20185;-67
2023/05/01 00:15:07;;;;;;;4.75;3.03;;;14.20;99.90;;;;;;5030650;28;20170;-64
2023/05/01 00:17:35;;;;;;;4.05;2.80;;;14.20;99.90;;;;;;5046574;28;20166;-67
2023/05/01 00:20:01;;;;;;;3.88;2.90;;;14.20;99.90;;;;;;5056527;28;20194;-67
2023/05/01 00:22:26;;;;;;;3.90;2.88;;;14.20;99.90;;;;;;5027143;28;20175;-67
2023/05/01 00:24:56;;;;;;;3.65;2.67;;;14.20;99.90;;;;;;5030352;28;20178;-67
2023/05/01 00:27:24;;;;;;;3.03;2.65;;;14.20;99.90;;;;;;5035469;28;20243;-67
2023/05/01 00:29:50;;;;;;;3.60;2.90;;;14.20;99.90;;;;;;5050851;28;20216;-66
2023/05/01 00:32:15;;;;;;;3.45;2.88;;;14.20;99.90;;;;;;5033912;28;20245;-67
2023/05/01 00:34:41;;;;;;;5.07;3.33;;;14.10;99.90;;;;;;5036933;28;20194;-64
2023/05/01 00:37:07;;;;;;;4.07;3.22;;;14.10;99.90;;;;;;5030848;28;20186;-67
2023/05/01 00:39:33;;;;;;;4.35;2.97;;;14.10;99.90;;;;;;5041640;28;20187;-66
2023/05/01 00:41:58;;;;;;;4.30;3.13;;;14.00;99.90;;;;;;5033288;28;20277;-66
2023/05/01 00:44:24;;;;;;;3.53;3.17;;;14.00;99.90;;;;;;5034373;28;20250;-66
2023/05/01 00:46:52;;;;;;;3.50;3.20;;;13.90;99.90;;;;;;5031879;28;20198;-67
2023/05/01 00:49:17;;;;;;;5.00;3.13;;;13.90;99.90;;;;;;5033257;28;20194;-66
2023/05/01 00:51:46;;;;;;;3.08;2.70;;;13.80;99.90;;;;;;5039003;28;20257;-67
2023/05/01 00:54:16;;;;;;;3.42;2.92;;;13.70;99.90;;;;;;5038089;28;20270;-67
2023/05/01 00:56:47;;;;;;;5.18;2.78;;;13.70;99.90;;;;;;5039494;28;20221;-68
2023/05/01 00:59:13;;;;;;;3.50;2.90;;;13.70;99.90;;;;;;5029286;28;20217;-66
2023/05/01 01:01:41;;;;;;;4.18;3.13;;;13.60;99.90;;;;;;5037101;28;20189;-66
2023/05/01 01:04:07;;;;;;;4.93;3.03;;;13.60;99.90;;;;;;5033290;28;20194;-65
2023/05/01 01:06:38;;;;;;;3.53;2.95;;;13.50;99.90;;;;;;5035619;28;20197;-66
2023/05/01 01:09:48;;;;;;;4.05;3.28;;;13.50;99.90;;;;;;5036820;28;20185;-67
2023/05/01 01:12:28;;;;;;;5.10;2.97;;;13.40;99.90;;;;;;5031729;28;20178;-67
2023/05/01 01:15:09;;;;;;;4.68;3.20;;;13.40;99.90;;;;;;5042194;28;20166;-67
2023/05/01 01:17:52;;;;;;;3.97;2.60;;;13.30;99.90;;;;;;5046458;28;20202;-67
2023/05/01 01:20:33;;;;;;;3.78;2.75;;;13.30;99.90;;;;;;5048710;28;20209;-64
2023/05/01 01:23:30;;;;;;;2.80;2.42;;;13.20;99.90;;;;;;5047087;28;20178;-64
2023/05/01 01:26:33;;;;;;;3.65;2.88;;;13.20;99.90;;;;;;5006882;28;20405;-67
2023/05/01 01:29:28;;;;;;;3.63;2.75;;;13.10;99.90;;;;;;5032841;28;20177;-67
2023/05/01 01:32:30;;;;;;;4.28;2.63;;;13.10;99.90;;;;;;5042024;28;20178;-67
2023/05/01 01:35:03;;;;;;;3.78;2.63;;;13.10;99.90;;;;;;5030386;28;20190;-66
2023/05/01 01:37:47;;;;;;;3.15;2.67;;;13.10;99.90;;;;;;5039083;28;20203;-64
2023/05/01 01:40:22;;;;;;;3.63;3.03;;;13.10;99.90;;;;;;5029989;28;20201;-64
2023/05/01 01:43:01;;;;;;;3.75;2.97;;;13.10;99.90;;;;;;5035713;28;20193;-64
2023/05/01 01:45:40;;;;;;;3.95;2.80;;;13.10;99.90;;;;;;5035365;28;20193;-64
2023/05/01 01:48:11;;;;;;;3.63;2.85;;;13.10;99.90;;;;;;5035321;28;20194;-63
2023/05/01 01:50:39;;;;;;;5.95;2.95;;;13.10;99.90;;;;;;5034556;28;20277;-64
2023/05/01 01:53:09;;;;;;;3.33;2.65;;;13.10;99.90;;;;;;5035323;28;20205;-63
2023/05/01 01:55:40;;;;;;;3.40;2.88;;;13.10;99.90;;;;;;5032288;28;20171;-64
2023/05/01 01:58:07;;;;;;;4.30;2.78;;;13.20;99.90;;;;;;5054929;28;20175;-63
2023/05/01 02:00:37;;;;;;;5.28;3.10;;;13.10;99.90;;;;;;5055546;28;20179;-64
2023/05/01 02:03:07;;;;;;;4.72;3.00;;;13.20;99.90;;;;;;5055079;28;20173;-64
2023/05/01 02:05:35;;;;;;;3.45;2.80;;;13.20;99.90;;;;;;5043726;28;20235;-63
2023/05/01 02:08:05;;;;;;;3.50;2.92;;;13.20;99.90;;;;;;5035004;28;20194;-64
2023/05/01 02:10:35;;;;;;;3.33;2.65;;;13.20;99.90;;;;;;5032907;28;20174;-64
2023/05/01 02:13:02;;;;;;;3.45;2.60;;;13.20;99.90;;;;;;5034249;28;20194;-64
2023/05/01 02:15:29;;;;;;;4.07;2.50;;;13.20;99.90;;;;;;5034565;28;20249;-64
2023/05/01 02:18:00;;;;;;;3.95;3.00;;;13.40;99.90;;;;;;5026703;28;20214;-64
2023/05/01 02:20:29;;;;;;;3.83;2.72;;;13.30;99.90;;;;;;5026416;28;20220;-63
2023/05/01 02:22:56;;;;;;;3.80;2.80;;;13.30;99.90;;;;;;5026655;28;20213;-63
2023/05/01 02:25:26;;;;;;;4.03;2.80;;;13.30;99.90;;;;;;5017409;28;20210;-64
2023/05/01 02:28:01;;;;;;;3.70;2.85;;;13.30;99.90;;;;;;5035346;28;20253;-64
2023/05/01 02:30:27;;;;;;;3.33;2.80;;;13.30;99.90;;;;;;5034415;28;20181;-64
2023/05/01 02:32:52;;;;;;;4.85;2.80;;;13.30;99.90;;;;;;5026264;28;20265;-64
2023/05/01 02:35:19;;;;;;;3.47;2.55;;;13.30;99.90;;;;;;5031666;28;20185;-64
2023/05/01 02:37:44;;;;;;;3.90;2.55;;;13.30;99.90;;;;;;5034328;28;20182;-64
2023/05/01 02:40:14;;;;;;;3.00;2.47;;;13.30;99.90;;;;;;5030723;28;20232;-64
2023/05/01 02:42:44;;;;;;;3.78;2.30;;;13.30;99.90;;;;;;5043492;28;20446;-65
2023/05/01 02:45:19;;;;;;;5.15;2.80;;;13.30;99.90;;;;;;5034316;28;20212;-64
2023/05/01 02:47:49;;;;;;;3.67;2.60;;;13.30;99.90;;;;;;5031110;28;20209;-64
2023/05/01 02:50:19;;;;;;;3.17;2.75;;;13.30;99.90;;;;;;5039349;28;20178;-64
2023/05/01 02:52:47;;;;;;;3.85;2.63;;;13.30;99.90;;;;;;5036595;28;20200;-64
2023/05/01 02:55:13;;;;;;;3.40;2.53;;;13.40;99.90;;;;;;5034350;28;20205;-64
2023/05/01 02:57:41;;;;;;;2.97;2.40;;;13.30;99.90;;;;;;5029857;28;20268;-64
2023/05/01 03:00:12;;;;;;;3.22;2.40;;;13.30;99.90;;;;;;5033251;28;20254;-63
2023/05/01 03:02:41;;;;;;;3.35;2.80;;;13.30;99.90;;;;;;5037526;28;20197;-63
2023/05/01 03:05:09;;;;;;;3.40;2.75;;;13.30;99.90;;;;;;5041346;28;20268;-64
2023/05/01 03:07:34;;;;;;;3.13;2.70;;;13.30;99.90;;;;;;5038699;28;20201;-63
2023/05/01 03:10:07;;;;;;;4.10;2.55;;;13.30;99.90;;;;;;5035559;28;20220;-64
2023/05/01 03:12:38;;;;;;;4.10;2.72;;;13.30;99.90;;;;;;5036195;28;20174;-64
2023/05/01 03:15:04;;;;;;;3.75;2.60;;;13.30;99.90;;;;;;5059297;28;20170;-65
2023/05/01 03:17:33;;;;;;;3.10;2.53;;;13.30;99.90;;;;;;5033979;28;20232;-63
2023/05/01 03:19:58;;;;;;;2.83;2.35;;;13.30;99.90;;;;;;5029855;28;20209;-64
2023/05/01 03:22:24;;;;;;;2.58;2.30;;;13.30;99.90;;;;;;5040145;28;20299;-63
2023/05/01 03:24:49;;;;;;;2.92;2.20;;;13.30;99.90;;;;;;5035853;28;20174;-64
2023/05/01 03:27:15;;;;;;;3.83;2.17;;;13.30;99.90;;;;;;5036694;28;20293;-63
2023/05/01 03:29:43;;;;;;;3.22;2.33;;;13.20;99.90;;;;;;5034800;28;20178;-64
2023/05/01 03:32:09;;;;;;;2.28;2.08;;;13.20;99.90;;;;;;5034702;28;20197;-64
2023/05/01 03:34:34;;;;;;;2.50;2.05;;;13.20;99.90;;;;;;5036933;28;20216;-64
2023/05/01 03:37:00;;;;;;;3.80;2.10;;;13.30;99.90;;;;;;5036475;28;20208;-64
2023/05/01 03:39:28;;;;;;;2.60;2.03;;;13.20;99.90;;;;;;5032222;28;20205;-64
2023/05/01 03:41:56;;;;;;;2.88;2.13;;;13.30;99.90;;;;;;5035688;28;20188;-64
2023/05/01 03:44:22;;;;;;;3.45;2.28;;;13.20;99.90;;;;;;5044683;28;20207;-64
2023/05/01 03:46:47;;;;;;;5.55;2.42;;;13.20;99.90;;;;;;5057803;28;20200;-64
2023/05/01 03:49:13;;;;;;;2.97;2.20;;;13.20;99.90;;;;;;5047523;28;20161;-64
2023/05/01 03:51:41;;;;;;;3.03;2.05;;;13.20;99.90;;;;;;5039471;28;20229;-64
2023/05/01 03:54:08;;;;;;;2.05;1.70;;;13.20;99.90;;;;;;5037873;28;20173;-64
2023/05/01 03:56:37;;;;;;;2.42;2.10;;;13.10;99.90;;;;;;5054992;28;20197;-64
2023/05/01 03:59:03;;;;;;;3.03;2.17;;;13.10;99.90;;;;;;5043782;28;20188;-64
2023/05/01 04:01:28;;;;;;;2.70;2.20;;;13.10;99.90;;;;;;5033214;28;20178;-65
2023/05/01 04:03:56;;;;;;;2.83;2.10;;;13.10;99.90;;;;;;5048538;28;20206;-64
2023/05/01 04:06:22;;;;;;;2.50;1.90;;;13.10;99.90;;;;;;5033439;28;20197;-64
2023/05/01 04:08:50;;;;;;;2.35;2.08;;;13.10;99.90;;;;;;5032863;28;20174;-64
2023/05/01 04:11:18;;;;;;;2.42;2.00;;;13.10;99.90;;;;;;5032194;28;20204;-64
2023/05/01 04:13:44;;;;;;;1.73;1.60;;;13.10;99.90;;;;;;5021934;28;20290;-64
2023/05/01 04:16:13;;;;;;;2.22;1.60;;;13.10;99.90;;;;;;5037427;28;20186;-63
2023/05/01 04:18:43;;;;;;;2.28;1.63;;;13.00;99.90;;;;;;5039619;28;20182;-65
2023/05/01 04:21:16;;;;;;;3.95;1.80;;;13.10;99.90;;;;;;5035639;28;20185;-64
2023/05/01 04:23:41;;;;;;;1.98;1.77;;;13.00;99.90;;;;;;5038867;28;20281;-65
2023/05/01 04:26:08;;;;;;;2.53;1.77;;;13.00;99.90;;;;;;5036064;28;20178;-64
2023/05/01 04:28:33;;;;;;;2.28;1.60;;;13.00;99.90;;;;;;5035427;28;20177;-64
2023/05/01 04:30:59;;;;;;;2.03;1.60;;;13.00;99.90;;;;;;5039236;28;20191;-64
2023/05/01 04:33:27;;;;;;;2.88;1.80;;;13.00;99.90;;;;;;5037388;28;20273;-63
2023/05/01 04:35:53;;;;;;;8.82;6.70;;;13.00;99.90;;;;;;5033206;28;20171;-64
2023/05/01 04:38:19;;;;;;;4.75;3.10;;;13.00;99.90;;;;;;5034861;28;20208;-64
2023/05/01 04:40:45;;;;;;;3.80;2.72;;;13.00;99.90;;;;;;5030898;28;20186;-64
2023/05/01 04:43:12;;;;;;;4.28;2.65;;;13.00;99.90;;;;;;5034278;28;20239;-64
2023/05/01 04:45:38;;;;;;;4.38;2.60;;;13.10;99.90;;;;;;5029896;28;20186;-64
2023/05/01 04:48:04;;;;;;;3.85;3.05;;;13.10;99.90;;;;;;5034078;28;20217;-64
2023/05/01 04:50:30;;;;;;;16.15;11.23;;;13.10;99.90;;;;;;5032529;28;20183;-63
2023/05/01 04:52:56;;;;;;;10.65;8.88;;;13.10;99.90;;;;;;5035794;28;20197;-64
2023/05/01 04:55:21;;;;;;;6.20;5.30;;;13.10;99.90;;;;;;5040713;28;20174;-64
2023/05/01 04:57:47;;;;;;;4.78;4.25;;;13.20;99.90;;;;;;5033159;28;20209;-64
2023/05/01 05:00:13;;;;;;;3.35;3.03;;;13.10;99.90;;;;;;5031296;28;20275;-64
2023/05/01 05:02:39;;;;;;;5.10;2.85;;;13.20;99.90;;;;;;5033722;28;20182;-64
2023/05/01 05:05:08;;;;;;;2.67;2.30;;;13.20;99.90;;;;;;5032469;28;20193;-64
2023/05/01 05:07:33;;;;;;;3.25;2.38;;;13.20;99.90;;;;;;5034769;28;20208;-64
2023/05/01 05:10:04;;;;;;;3.25;1.98;;;13.30;99.90;;;;;;5033362;28;20237;-64
2023/05/01 05:12:29;;;;;;;13.73;9.93;;;13.30;99.90;;;;;;5037868;28;20182;-64
2023/05/01 05:14:55;;;;;;;6.70;4.57;;;13.30;99.90;;;;;;5031293;28;20178;-64
2023/05/01 05:17:23;;;;;;;5.35;4.50;;;13.40;99.90;;;;;;5027021;28;20216;-64
2023/05/01 05:19:49;;;;;;;3.78;3.15;;;13.40;99.90;;;;;;5026381;28;20203;-64
2023/05/01 05:22:14;;;;;;;3.00;2.67;;;13.40;99.90;;;;;;5028395;28;20181;-64
2023/05/01 05:24:43;;;;;;;3.38;2.53;;;13.50;99.90;;;;;;5030434;28;20193;-65
2023/05/01 05:27:09;;;;;;;2.60;2.40;;;13.50;99.90;;;;;;5028066;28;20229;-65
2023/05/01 05:29:35;;;;;;;2.33;1.95;;;13.50;99.90;;;;;;5031159;28;20205;-65
2023/05/01 05:32:06;;;;;;;3.22;2.28;;;13.60;99.90;;;;;;5027219;28;20229;-65
2023/05/01 05:34:31;;;;;;;2.38;1.88;;;13.60;99.90;;;;;;5032857;28;20194;-65
2023/05/01 05:36:59;;;;;;;2.15;1.92;;;13.70;99.90;;;;;;5035826;28;20188;-64
2023/05/01 05:39:27;;;;;;;2.67;2.00;;;13.80;99.90;;;;;;5034853;28;20186;-65
2023/05/01 05:41:54;;;;;;;2.30;1.80;;;13.80;99.90;;;;;;5036960;28;20264;-65
2023/05/01 05:44:24;;;;;;;2.28;1.77;;;13.90;99.90;;;;;;5034047;28;20174;-65
2023/05/01 05:46:50;;;;;;;2.83;2.17;;;13.90;99.90;;;;;;5034536;28;20193;-65
2023/05/01 05:49:17;;;;;;;2.30;1.85;;;14.00;99.90;;;;;;5032665;28;20246;-65
2023/05/01 05:51:45;;;;;;;2.55;1.80;;;14.00;99.90;;;;;;5034046;28;20197;-65
2023/05/01 05:54:11;;;;;;;1.83;1.65;;;14.10;99.90;;;;;;5034728;28;20166;-64
2023/05/01 05:56:36;;;;;;;4.15;2.00;;;14.10;99.90;;;;;;5031007;28;20224;-65
2023/05/01 05:59:03;;;;;;;2.38;1.90;;;14.20;99.90;;;;;;5033543;28;20189;-65
2023/05/01 06:01:29;;;;;;;2.53;2.00;;;14.20;99.90;;;;;;5034116;28;20231;-64
2023/05/01 06:03:55;;;;;;;2.22;1.83;;;14.30;99.90;;;;;;5034302;28;20245;-64
2023/05/01 06:06:23;;;;;;;2.42;1.77;;;14.30;99.90;;;;;;5034379;28;20208;-64
2023/05/01 06:08:49;;;;;;;1.92;1.73;;;14.40;99.90;;;;;;5030445;28;20239;-65
2023/05/01 06:11:15;;;;;;;2.92;1.90;;;14.50;99.90;;;;;;5034119;28;20186;-65
2023/05/01 06:13:40;;;;;;;2.30;1.80;;;14.50;99.90;;;;;;5033164;28;20213;-65
2023/05/01 06:16:06;;;;;;;2.65;1.90;;;14.60;99.90;;;;;;5034022;28;20232;-64
2023/05/01 06:18:35;;;;;;;2.35;1.70;;;14.60;99.90;;;;;;5033532;28;20174;-65
2023/05/01 06:21:03;;;;;;;3.15;1.60;;;14.70;99.90;;;;;;5036552;28;20195;-64
2023/05/01 06:23:29;;;;;;;2.58;1.70;;;14.70;99.90;;;;;;5014343;28;20171;-65
2023/05/01 06:25:54;;;;;;;2.05;1.70;;;14.70;99.90;;;;;;5033655;28;20240;-65
2023/05/01 06:28:22;;;;;;;2.10;1.70;;;14.80;99.90;;;;;;5037101;28;20219;-65
2023/05/01 06:30:48;;;;;;;3.03;1.90;;;14.90;99.90;;;;;;5034933;28;20178;-65
2023/05/01 06:33:13;;;;;;;3.55;1.92;;;14.90;99.90;;;;;;5031966;28;20190;-65
2023/05/01 06:35:39;;;;;;;2.75;1.65;;;15.00;99.90;;;;;;5032303;28;20166;-65
2023/05/01 06:38:05;;;;;;;2.42;1.60;;;14.90;99.90;;;;;;5030443;28;20252;-64
2023/05/01 06:40:33;;;;;;;2.17;1.75;;;15.00;99.90;;;;;;5038678;28;20216;-65
2023/05/01 06:43:00;;;;;;;2.30;1.80;;;15.10;99.90;;;;;;5033870;28;20175;-65
2023/05/01 06:45:25;;;;;;;1.50;1.40;;;15.10;99.90;;;;;;5034765;28;20186;-64
2023/05/01 06:47:51;;;;;;;2.10;1.45;;;15.20;99.90;;;;;;5033648;28;20193;-65
2023/05/01 06:50:16;;;;;;;1.98;1.40;;;15.30;99.90;;;;;;5024048;28;20186;-64
2023/05/01 06:52:43;;;;;;;1.85;1.58;;;15.30;99.90;;;;;;5037440;28;20225;-65
2023/05/01 06:55:09;;;;;;;2.47;1.77;;;15.40;99.90;;;;;;5026163;28;20179;-64
2023/05/01 06:57:34;;;;;;;3.53;1.50;;;15.40;99.90;;;;;;5015427;28;20328;-65
2023/05/01 07:00:02;;;;;;;3.22;1.90;;;15.50;99.90;;;;;;5044084;28;20213;-64
2023/05/01 07:02:28;;;;;;;2.15;1.60;;;15.50;99.90;;;;;;5034351;28;20181;-65
2023/05/01 07:04:55;;;;;;;2.40;1.60;;;15.50;99.90;;;;;;5021247;28;20229;-64
2023/05/01 07:07:22;;;;;;;1.92;1.40;;;15.60;99.90;;;;;;5040758;28;20209;-65
2023/05/01 07:09:47;;;;;;;4.28;1.67;;;15.60;99.90;;;;;;5034047;28;20181;-65
2023/05/01 07:12:15;;;;;;;2.95;1.70;;;15.70;99.90;;;;;;5033657;28;20174;-65
2023/05/01 07:14:41;;;;;;;1.75;1.30;;;15.70;99.90;;;;;;5033966;28;20178;-65
2023/05/01 07:17:08;;;;;;;2.83;1.63;;;15.70;99.90;;;;;;5033619;28;20178;-65
2023/05/01 07:19:33;;;;;;;4.38;1.58;;;15.70;99.90;;;;;;5041044;28;20185;-64
2023/05/01 07:22:03;;;;;;;1.80;1.50;;;15.70;99.90;;;;;;5031482;28;20181;-65
2023/05/01 07:24:31;;;;;;;2.40;1.65;;;15.80;99.90;;;;;;5030878;28;20187;-65
2023/05/01 07:26:58;;;;;;;3.45;2.40;;;15.80;99.90;;;;;;5031515;28;20206;-64
2023/05/01 07:29:24;;;;;;;1.83;1.73;;;15.90;99.90;;;;;;5030816;28;20185;-64
2023/05/01 07:31:50;;;;;;;4.43;1.80;;;15.90;99.90;;;;;;5029592;28;20408;-65
2023/05/01 07:34:17;;;;;;;2.47;1.80;;;16.00;99.90;;;;;;5034025;28;20205;-65
2023/05/01 07:36:42;;;;;;;2.55;1.40;;;16.00;99.90;;;;;;5030751;28;20179;-65
2023/05/01 07:39:10;;;;;;;2.28;1.50;;;16.10;99.90;;;;;;5030026;28;20185;-65
2023/05/01 07:41:38;;;;;;;2.28;1.65;;;16.20;99.90;;;;;;5014648;28;20233;-65
2023/05/01 07:44:08;;;;;;;4.32;1.73;;;16.20;99.90;;;;;;5030904;28;20257;-65
2023/05/01 07:46:35;;;;;;;2.35;1.50;;;16.20;99.90;;;;;;5034115;28;20198;-65
2023/05/01 07:49:01;;;;;;;1.85;1.58;;;16.20;99.90;;;;;;5037889;28;20193;-65
2023/05/01 07:51:29;;;;;;;2.40;1.38;;;16.30;99.90;;;;;;5037638;28;20193;-65
2023/05/01 07:53:55;;;;;;;2.20;1.38;;;16.30;99.90;;;;;;5049625;28;20197;-65
2023/05/01 07:56:20;;;;;;;2.00;1.40;;;16.40;99.90;;;;;;5025344;28;20236;-65
2023/05/01 07:58:46;;;;;;;3.72;1.38;;;16.40;99.90;;;;;;5029772;28;20174;-65
2023/05/01 08:01:12;;;;;;;1.83;1.55;;;16.50;99.90;;;;;;5037546;28;20181;-65
2023/05/01 08:03:38;;;;;;;1.73;1.40;;;16.60;99.90;;;;;;5037425;28;20235;-65
2023/05/01 08:06:04;;;;;;;2.83;1.83;;;16.70;99.90;;;;;;5037332;28;20201;-65
2023/05/01 08:08:32;;;;;;;1.33;1.20;;;16.80;99.90;;;;;;5037484;28;20178;-65
2023/05/01 08:11:00;;;;;;;1.80;1.50;;;16.90;99.90;;;;;;5036700;28;20177;-65
2023/05/01 08:13:28;;;;;;;4.15;2.42;;;16.90;99.90;;;;;;5036890;28;20206;-65
2023/05/01 08:15:58;;;;;;;2.42;1.58;;;17.00;99.90;;;;;;5037377;28;20178;-65
2023/05/01 08:18:25;;;;;;;2.78;1.70;;;17.00;99.90;;;;;;5036666;28;20193;-65
2023/05/01 08:20:51;;;;;;;2.60;1.60;;;17.00;99.90;;;;;;5036364;28;20174;-65
2023/05/01 08:23:17;;;;;;;2.88;1.60;;;17.10;99.90;;;;;;5036756;28;20205;-65
2023/05/01 08:25:48;;;;;;;2.08;1.52;;;17.10;99.90;;;;;;5032122;28;20171;-65
2023/05/01 08:28:14;;;;;;;2.90;1.63;;;17.10;99.90;;;;;;5036569;28;20194;-65
2023/05/01 08:30:39;;;;;;;2.80;1.60;;;17.20;99.90;;;;;;5036535;28;20163;-66
2023/05/01 08:33:08;;;;;;;2.85;1.60;;;17.20;99.90;;;;;;5038327;28;20273;-66
2023/05/01 08:35:36;;;;;;;1.98;1.50;;;17.20;99.90;;;;;;5036899;28;20184;-65
2023/05/01 08:38:04;;;;;;;2.97;1.30;;;17.30;99.90;;;;;;5030976;28;20179;-65
2023/05/01 08:40:34;;;;;;;2.00;1.30;;;17.40;99.90;;;;;;5021450;28;20374;-65
2023/05/01 08:43:01;;;;;;;2.63;1.48;;;17.50;99.90;;;;;;5030220;28;20269;-65
2023/05/01 08:45:36;;;;;;;1.92;1.60;;;17.50;99.90;;;;;;5034784;28;20225;-64
2023/05/01 08:48:06;;;;;;;1.85;1.45;;;17.60;99.90;;;;;;5036136;28;20197;-64
2023/05/01 08:50:36;;;;;;;2.50;1.60;;;17.60;99.90;;;;;;5044751;28;20174;-66
2023/05/01 08:53:03;;;;;;;2.30;1.50;;;17.70;99.90;;;;;;5037722;28;20177;-63
2023/05/01 08:55:33;;;;;;;1.65;1.40;;;17.80;99.90;;;;;;5055183;28;20182;-63
2023/05/01 08:58:00;;;;;;;2.50;1.77;;;17.90;99.90;;;;;;5034408;28;21575;-63
2023/05/01 09:00:26;;;;;;;2.10;1.60;;;18.00;99.90;;;;;;5035811;28;20209;-63
2023/05/01 09:02:51;;;;;;;1.77;1.40;;;18.00;99.90;;;;;;5043809;28;20171;-65
2023/05/01 09:05:18;;;;;;;2.40;1.50;;;18.10;99.90;;;;;;5034402;28;20232;-64
2023/05/01 09:07:45;;;;;;;2.13;1.50;;;18.10;99.90;;;;;;5031626;28;20301;-64
2023/05/01 09:10:14;;;;;;;2.15;1.50;;;18.10;99.90;;;;;;5034527;28;20189;-64
2023/05/01 09:12:43;;;;;;;1.92;1.50;;;18.20;99.90;;;;;;5034121;28;20246;-65
2023/05/01 09:15:11;;;;;;;3.15;2.10;;;18.30;99.90;;;;;;5035394;28;20387;-65
2023/05/01 09:17:40;;;;;;;2.35;1.65;;;18.30;99.90;;;;;;5027851;28;20253;-66
2023/05/01 09:20:06;;;;;;;1.80;1.60;;;18.30;99.90;;;;;;5033502;28;20257;-65
2023/05/01 09:22:33;;;;;;;2.35;1.73;;;18.40;99.90;;;;;;5017851;28;20187;-65
2023/05/01 09:25:02;;;;;;;1.73;1.50;;;18.40;99.90;;;;;;5035441;28;20221;-65
2023/05/01 09:27:35;;;;;;;2.50;1.90;;;18.50;99.90;;;;;;5032305;28;20304;-65
2023/05/01 09:30:04;;;;;;;2.13;1.63;;;18.60;99.90;;;;;;5028748;28;20178;-64
2023/05/01 09:32:33;;;;;;;2.45;1.33;;;18.60;99.90;;;;;;5026479;28;20232;-66
2023/05/01 09:35:13;;;;;;;3.35;1.60;;;18.80;99.90;;;;;;5035078;28;20802;-64
2023/05/01 09:37:39;;;;;;;2.95;1.60;;;18.80;99.90;;;;;;5035554;28;20189;-66
2023/05/01 09:40:09;;;;;;;2.40;1.60;;;18.90;99.90;;;;;;5041621;28;20174;-65
2023/05/01 09:42:51;;;;;;;2.08;1.73;;;19.00;99.90;;;;;;5036046;28;20205;-68
2023/05/01 09:45:18;;;;;;;3.28;1.90;;;19.10;99.90;;;;;;5032598;28;20359;-66
2023/05/01 09:47:50;;;;;;;2.40;1.80;;;19.10;99.90;;;;;;5028246;28;20206;-65
2023/05/01 09:50:33;;;;;;;2.55;1.90;;;19.20;99.90;;;;;;5034521;28;20193;-66
2023/05/01 09:53:05;;;;;;;1.98;1.50;;;19.30;99.90;;;;;;5034589;28;20224;-66
2023/05/01 09:55:31;;;;;;;2.08;1.67;;;19.40;99.90;;;;;;5029942;28;20185;-66
2023/05/01 09:57:59;;;;;;;2.58;1.70;;;19.50;99.90;;;;;;5041310;28;20181;-66
2023/05/01 10:00:25;;;;;;;1.63;1.52;;;19.60;99.90;;;;;;5037845;28;20196;-67
2023/05/01 10:02:51;;;;;;;1.75;1.42;;;19.60;99.90;;;;;;5041083;28;20206;-64
2023/05/01 10:05:17;;;;;;;2.50;1.60;;;19.70;99.90;;;;;;5034263;28;20188;-66
2023/05/01 10:08:04;;;;;;;2.40;1.60;;;19.80;99.90;;;;;;5033992;28;20318;-66
2023/05/01 10:10:32;;;;;;;2.45;1.50;;;19.90;99.90;;;;;;5033486;28;20170;-70
2023/05/01 10:13:15;;;;;;;1.88;1.50;;;20.00;99.90;;;;;;5051464;28;20169;-74
2023/05/01 10:15:45;;;;;;;1.88;1.58;;;20.00;99.90;;;;;;5045213;28;20250;-74
2023/05/01 10:18:16;;;;;;;2.63;1.65;;;20.10;99.90;;;;;;5030106;28;20178;-71
2023/05/01 10:20:41;;;;;;;2.13;1.70;;;20.20;99.90;;;;;;5031964;28;20260;-69
2023/05/01 10:23:09;;;;;;;2.17;1.80;;;20.40;99.90;;;;;;5039114;28;20260;-69
2023/05/01 10:25:36;;;;;;;3.15;1.88;;;20.50;99.90;;;;;;5033832;28;20174;-71
2023/05/01 10:28:05;;;;;;;2.20;1.80;;;20.60;99.90;;;;;;5028186;28;20339;-65
2023/05/01 10:30:31;;;;;;;1.77;1.50;;;20.70;99.90;;;;;;5027454;28;20174;-66
2023/05/01 10:32:58;;;;;;;2.17;1.98;;;20.70;99.90;;;;;;5031155;28;20186;-62
2023/05/01 10:35:30;;;;;;;3.58;2.95;;;20.80;99.90;;;;;;5022880;28;20170;-66
2023/05/01 10:37:56;;;;;;;3.30;2.30;;;21.00;99.90;;;;;;5038325;28;20186;-66
2023/05/01 10:40:44;;;;;;;2.65;2.13;;;21.10;99.90;;;;;;5021208;28;20178;-65
2023/05/01 10:43:19;;;;;;;2.38;1.80;;;21.30;99.90;;;;;;5029743;28;20178;-65
2023/05/01 10:45:46;;;;;;;2.20;1.58;;;21.40;99.90;;;;;;5033755;28;20182;-62
2023/05/01 10:48:38;;;;;;;2.17;1.52;;;21.50;99.90;;;;;;5032912;28;20305;-66
2023/05/01 10:51:14;;;;;;;2.65;1.50;;;21.60;99.90;;;;;;5043794;28;20194;-65
2023/05/01 10:53:41;;;;;;;1.55;1.23;;;21.60;99.90;;;;;;5050018;28;20239;-66
2023/05/01 10:56:39;;;;;;;1.65;1.30;;;21.60;99.90;;;;;;5029625;28;20198;-63
2023/05/01 10:59:08;;;;;;;2.22;1.40;;;21.60;99.90;;;;;;5029630;28;20217;-66
2023/05/01 11:01:41;;;;;;;1.60;1.50;;;21.60;99.90;;;;;;5042142;28;20177;-65
2023/05/01 11:04:23;;;;;;;1.70;1.40;;;21.70;99.90;;;;;;5035700;28;20241;-66
2023/05/01 11:07:07;;;;;;;2.05;1.48;;;21.70;99.90;;;;;;5035595;28;20229;-61
2023/05/01 11:09:41;;;;;;;4.68;3.33;;;21.60;99.90;;;;;;5014456;28;20253;-66
2023/05/01 11:12:15;;;;;;;2.72;2.42;;;21.50;99.90;;;;;;5046090;28;20205;-64
2023/05/01 11:15:08;;;;;;;2.58;1.83;;;21.40;99.90;;;;;;5033172;28;20428;-65
2023/05/01 11:17:42;;;;;;;1.95;1.63;;;21.40;99.90;;;;;;5024964;28;20380;-66
2023/05/01 11:20:33;;;;;;;2.83;1.58;;;21.30;99.90;;;;;;5033692;28;20184;-63
2023/05/01 11:23:01;;;;;;;2.10;1.58;;;21.30;99.90;;;;;;5033147;28;20186;-64
2023/05/01 11:25:31;;;;;;;2.42;1.40;;;21.20;99.90;;;;;;5047823;28;20200;-66
2023/05/01 11:28:00;;;;;;;1.77;1.60;;;21.10;99.90;;;;;;5038710;28;20247;-64
2023/05/01 11:30:35;;;;;;;1.70;1.60;;;21.10;99.90;;;;;;5034154;28;20184;-65
2023/05/01 11:33:04;;;;;;;2.15;1.92;;;21.10;99.90;;;;;;5042597;28;20269;-61
2023/05/01 11:35:33;;;;;;;2.42;1.90;;;21.10;99.90;;;;;;5034964;28;20170;-64
2023/05/01 11:37:59;;;;;;;2.35;1.50;;;21.10;99.90;;;;;;5037419;28;20178;-64
2023/05/01 11:40:34;;;;;;;1.80;1.52;;;21.10;99.90;;;;;;5027513;28;20190;-66
2023/05/01 11:43:02;;;;;;;2.25;1.70;;;21.00;99.90;;;;;;5033767;28;20216;-66
2023/05/01 11:45:28;;;;;;;2.28;1.80;;;21.00;99.90;;;;;;5033157;28;20318;-66
2023/05/01 11:47:54;;;;;;;2.33;1.77;;;21.00;99.90;;;;;;5022952;28;20205;-65
2023/05/01 11:50:20;;;;;;;2.78;2.10;;;21.00;99.90;;;;;;5031207;28;20166;-64
2023/05/01 11:52:52;;;;;;;1.77;1.42;;;21.00;99.90;;;;;;5035907;28;20401;-66
2023/05/01 11:55:21;;;;;;;3.58;1.90;;;21.00;99.90;;;;;;5023215;28;20182;-65
2023/05/01 11:57:53;;;;;;;1.63;1.52;;;21.10;99.90;;;;;;5036696;28;20209;-66
2023/05/01 12:00:32;;;;;;;2.15;1.50;;;21.20;99.90;;;;;;5041986;28;20254;-66
2023/05/01 12:03:01;;;;;;;6.32;1.40;;;21.30;99.90;;;;;;5041852;28;20184;-65
2023/05/01 12:05:29;;;;;;;2.38;1.67;;;21.40;99.90;;;;;;5034013;28;20236;-66
2023/05/01 12:08:19;;;;;;;1.60;1.40;;;21.50;99.90;;;;;;5037576;28;20206;-66
2023/05/01 12:10:51;;;;;;;1.77;1.50;;;21.60;99.90;;;;;;5036279;28;20170;-66
2023/05/01 12:13:19;;;;;;;1.60;1.40;;;21.70;99.90;;;;;;5037439;28;20292;-63
2023/05/01 12:15:47;;;;;;;1.73;1.38;;;21.80;99.90;;;;;;5025039;28;20244;-66
2023/05/01 12:18:14;;;;;;;1.83;1.40;;;22.00;99.90;;;;;;5035819;28;20178;-65
2023/05/01 12:20:42;;;;;;;1.60;1.40;;;22.10;99.90;;;;;;5035038;28;20198;-65
2023/05/01 12:23:15;;;;;;;1.52;1.20;;;22.30;99.90;;;;;;5041002;28;20216;-65
2023/05/01 12:25:42;;;;;;;2.85;1.30;;;22.60;99.90;;;;;;5034105;28;20188;-66
2023/05/01 12:28:13;;;;;;;1.35;1.25;;;22.80;99.90;;;;;;5029945;28;20206;-65
2023/05/01 12:30:46;;;;;;;1.45;1.27;;;23.00;99.90;;;;;;5029038;28;20174;-67
2023/05/01 12:33:15;;;;;;;1.60;1.20;;;23.20;99.90;;;;;;5030904;28;20183;-66
2023/05/01 12:35:45;;;;;;;1.50;1.40;;;23.30;99.90;;;;;;5036683;28;20192;-68
2023/05/01 12:38:19;;;;;;;1.77;1.40;;;23.40;99.90;;;;;;5028767;28;20177;-65
2023/05/01 12:40:55;;;;;;;2.10;1.42;;;23.50;99.90;;;;;;5030420;28;20174;-67
2023/05/01 12:43:28;;;;;;;1.63;1.40;;;23.60;99.90;;;;;;5046058;28;20187;-66
2023/05/01 12:45:54;;;;;;;1.77;1.50;;;23.70;99.90;;;;;;5032075;28;20202;-67
2023/05/01 12:48:20;;;;;;;1.42;1.20;;;23.70;99.90;;;;;;5033205;28;20253;-66
2023/05/01 12:50:55;;;;;;;1.83;1.35;;;23.60;99.90;;;;;;5033646;28;20193;-67
2023/05/01 12:53:26;;;;;;;1.90;1.30;;;23.50;99.90;;;;;;5033280;28;20323;-66
2023/05/01 12:55:58;;;;;;;2.20;1.30;;;23.40;99.90;;;;;;5025383;28;20433;-66